NWK1605 YPDN-YPPH
Flight info
| Callsign | NWK1605 |
|---|---|
| Flight time | N/A |
| Altitude | 38000 |
| Route | HELLI J151 CIN W257 NWN Q38 JULIM |
| Aircraft | A319/M-SDE3FGHIRWY/LB1 |
Departure
| Time | 2026-04-10 04:51 |
|---|---|
| Airport | Darwin International Airport / RAAF Darwin (YPDN) |
Arrival
| Time | N/A |
|---|---|
| Airport | Perth International Airport (YPPH) |
| Time | Latitude | Longitude | Altitude | Speed | Heading |
|---|---|---|---|---|---|
| 2026-04-10 04:37 | -12.40884 | 130.87741 | 92 ft | 0 kts | 19° |
| 2026-04-10 04:40 | -12.40890 | 130.87739 | 91 ft | 2 kts | 19° |
| 2026-04-10 04:40 | -12.40908 | 130.87733 | 90 ft | 3 kts | 19° |
| 2026-04-10 04:40 | -12.40928 | 130.87726 | 93 ft | 3 kts | 20° |
| 2026-04-10 04:41 | -12.40945 | 130.87718 | 90 ft | 3 kts | 42° |
| 2026-04-10 04:41 | -12.40955 | 130.87704 | 90 ft | 3 kts | 84° |
| 2026-04-10 04:41 | -12.40954 | 130.87685 | 90 ft | 2 kts | 100° |
| 2026-04-10 04:41 | -12.40953 | 130.87679 | 90 ft | 0 kts | 99° |
| 2026-04-10 04:48 | -12.40955 | 130.87689 | 90 ft | 5 kts | 98° |
| 2026-04-10 04:48 | -12.40962 | 130.87755 | 90 ft | 14 kts | 98° |
| 2026-04-10 04:48 | -12.40987 | 130.87876 | 92 ft | 21 kts | 108° |
| 2026-04-10 04:48 | -12.41037 | 130.88022 | 90 ft | 23 kts | 105° |
| 2026-04-10 04:49 | -12.41154 | 130.88085 | 92 ft | 23 kts | 199° |
| 2026-04-10 04:49 | -12.41312 | 130.88029 | 89 ft | 25 kts | 199° |
| 2026-04-10 04:49 | -12.41486 | 130.87966 | 89 ft | 27 kts | 199° |
| 2026-04-10 04:49 | -12.41669 | 130.87940 | 90 ft | 27 kts | 155° |
| 2026-04-10 04:50 | -12.41757 | 130.88110 | 91 ft | 28 kts | 109° |
| 2026-04-10 04:50 | -12.41812 | 130.88307 | 90 ft | 29 kts | 87° |
| 2026-04-10 04:50 | -12.41667 | 130.88440 | 87 ft | 30 kts | 20° |
| 2026-04-10 04:50 | -12.41586 | 130.88444 | 87 ft | 10 kts | 290° |
| 2026-04-10 04:51 | -12.41542 | 130.88311 | 90 ft | 50 kts | 289° |
| 2026-04-10 04:51 | -12.41330 | 130.87675 | 90 ft | 134 kts | 289° |
| 2026-04-10 04:51 | -12.40990 | 130.86654 | 598 ft | 153 kts | 288° |
| 2026-04-10 04:51 | -12.40655 | 130.85641 | 1506 ft | 149 kts | 288° |
| 2026-04-10 04:52 | -12.40321 | 130.84638 | 2273 ft | 152 kts | 289° |
| 2026-04-10 04:52 | -12.39944 | 130.83536 | 2815 ft | 176 kts | 289° |
| 2026-04-10 04:52 | -12.39516 | 130.82278 | 3419 ft | 199 kts | 289° |
| 2026-04-10 04:52 | -12.39034 | 130.80855 | 4071 ft | 224 kts | 289° |
| 2026-04-10 04:53 | -12.38498 | 130.79262 | 4742 ft | 249 kts | 289° |
| 2026-04-10 04:53 | -12.37915 | 130.77529 | 5610 ft | 265 kts | 289° |
| 2026-04-10 04:53 | -12.37305 | 130.75727 | 6719 ft | 271 kts | 289° |
| 2026-04-10 04:53 | -12.36851 | 130.73849 | 7810 ft | 276 kts | 274° |
| 2026-04-10 04:54 | -12.37034 | 130.71887 | 8893 ft | 281 kts | 254° |
| 2026-04-10 04:54 | -12.37898 | 130.70089 | 9949 ft | 286 kts | 233° |
| 2026-04-10 04:54 | -12.39334 | 130.68664 | 10719 ft | 303 kts | 217° |
| 2026-04-10 04:54 | -12.41115 | 130.67357 | 11198 ft | 327 kts | 215° |
| 2026-04-10 04:55 | -12.43048 | 130.65972 | 11592 ft | 352 kts | 215° |
| 2026-04-10 04:55 | -12.45123 | 130.64493 | 11901 ft | 375 kts | 215° |
| 2026-04-10 04:55 | -12.47298 | 130.62938 | 12499 ft | 386 kts | 215° |
| 2026-04-10 04:55 | -12.49513 | 130.61344 | 13269 ft | 392 kts | 215° |
| 2026-04-10 04:56 | -12.51752 | 130.59724 | 14059 ft | 396 kts | 216° |
| 2026-04-10 04:56 | -12.54014 | 130.58082 | 14825 ft | 401 kts | 216° |
| 2026-04-10 04:56 | -12.56297 | 130.56418 | 15575 ft | 405 kts | 216° |
| 2026-04-10 04:56 | -12.58608 | 130.54731 | 16283 ft | 410 kts | 216° |
| 2026-04-10 04:57 | -12.60939 | 130.53031 | 16950 ft | 414 kts | 216° |
| 2026-04-10 04:57 | -12.63300 | 130.51314 | 17590 ft | 418 kts | 216° |
| 2026-04-10 04:57 | -12.65677 | 130.49587 | 18196 ft | 421 kts | 216° |
| 2026-04-10 04:57 | -12.68083 | 130.47840 | 18795 ft | 425 kts | 216° |
| 2026-04-10 04:58 | -12.70508 | 130.46079 | 19375 ft | 429 kts | 216° |
| 2026-04-10 04:58 | -12.72951 | 130.44304 | 19924 ft | 432 kts | 216° |
| 2026-04-10 04:58 | -12.75416 | 130.42516 | 20459 ft | 436 kts | 215° |
| 2026-04-10 04:58 | -12.77900 | 130.40718 | 20978 ft | 439 kts | 215° |
| 2026-04-10 04:59 | -12.80404 | 130.38901 | 21474 ft | 442 kts | 216° |
| 2026-04-10 04:59 | -12.82834 | 130.36958 | 21945 ft | 445 kts | 222° |
| 2026-04-10 04:59 | -12.84975 | 130.34648 | 22417 ft | 448 kts | 231° |
| 2026-04-10 04:59 | -12.86889 | 130.32114 | 22868 ft | 451 kts | 232° |
| 2026-04-10 05:00 | -12.88812 | 130.29562 | 23310 ft | 454 kts | 232° |
| 2026-04-10 05:00 | -12.90749 | 130.26999 | 23733 ft | 456 kts | 232° |
| 2026-04-10 05:00 | -12.92706 | 130.24419 | 24127 ft | 459 kts | 232° |
| 2026-04-10 05:00 | -12.94678 | 130.21827 | 24520 ft | 462 kts | 232° |
| 2026-04-10 05:01 | -12.96633 | 130.19258 | 24894 ft | 465 kts | 232° |
| 2026-04-10 05:01 | -12.98626 | 130.16637 | 25254 ft | 467 kts | 232° |
| 2026-04-10 05:01 | -13.00627 | 130.14000 | 25605 ft | 470 kts | 232° |
| 2026-04-10 05:01 | -13.02635 | 130.11350 | 25946 ft | 472 kts | 232° |
| 2026-04-10 05:02 | -13.04654 | 130.08684 | 26275 ft | 475 kts | 232° |
| 2026-04-10 05:02 | -13.06684 | 130.06001 | 26598 ft | 477 kts | 232° |
| 2026-04-10 05:02 | -13.08718 | 130.03311 | 26967 ft | 477 kts | 232° |
| 2026-04-10 05:02 | -13.10749 | 130.00624 | 27437 ft | 476 kts | 232° |
| 2026-04-10 05:03 | -13.12777 | 129.97942 | 27910 ft | 475 kts | 232° |
| 2026-04-10 05:03 | -13.14800 | 129.95268 | 28378 ft | 474 kts | 232° |
| 2026-04-10 05:03 | -13.16820 | 129.92598 | 28856 ft | 473 kts | 232° |
| 2026-04-10 05:03 | -13.18833 | 129.89936 | 29331 ft | 472 kts | 232° |
| 2026-04-10 05:04 | -13.20842 | 129.87276 | 29791 ft | 471 kts | 232° |
| 2026-04-10 05:04 | -13.22843 | 129.84622 | 30251 ft | 470 kts | 232° |
| 2026-04-10 05:04 | -13.24839 | 129.81974 | 30720 ft | 469 kts | 232° |
| 2026-04-10 05:04 | -13.26838 | 129.79324 | 31186 ft | 468 kts | 232° |
| 2026-04-10 05:05 | -13.28836 | 129.76683 | 31648 ft | 467 kts | 232° |
| 2026-04-10 05:05 | -13.30825 | 129.74051 | 32120 ft | 466 kts | 232° |
| 2026-04-10 05:05 | -13.32808 | 129.71421 | 32570 ft | 465 kts | 232° |
| 2026-04-10 05:05 | -13.34787 | 129.68793 | 33020 ft | 465 kts | 232° |
| 2026-04-10 05:06 | -13.36758 | 129.66172 | 33473 ft | 464 kts | 232° |
| 2026-04-10 05:06 | -13.38731 | 129.63548 | 33929 ft | 463 kts | 232° |
| 2026-04-10 05:06 | -13.40701 | 129.60931 | 34386 ft | 462 kts | 232° |
| 2026-04-10 05:06 | -13.42641 | 129.58355 | 34845 ft | 461 kts | 232° |
| 2026-04-10 05:07 | -13.44600 | 129.55757 | 35305 ft | 460 kts | 232° |
| 2026-04-10 05:07 | -13.46560 | 129.53158 | 35757 ft | 459 kts | 232° |
| 2026-04-10 05:07 | -13.48512 | 129.50563 | 36184 ft | 458 kts | 232° |
| 2026-04-10 05:07 | -13.50455 | 129.47977 | 36586 ft | 457 kts | 232° |
| 2026-04-10 05:08 | -13.52399 | 129.45393 | 36961 ft | 457 kts | 232° |
| 2026-04-10 05:08 | -13.54347 | 129.42802 | 37324 ft | 457 kts | 232° |
| 2026-04-10 05:08 | -13.56291 | 129.40211 | 37692 ft | 457 kts | 232° |
| 2026-04-10 05:08 | -13.58234 | 129.37618 | 37946 ft | 458 kts | 232° |
| 2026-04-10 05:09 | -13.60178 | 129.35024 | 38010 ft | 458 kts | 232° |
| 2026-04-10 05:09 | -13.66011 | 129.27250 | 38009 ft | 457 kts | 232° |
| 2026-04-10 05:10 | -13.69901 | 129.22072 | 38009 ft | 457 kts | 232° |
| 2026-04-10 05:10 | -13.73787 | 129.16889 | 38009 ft | 458 kts | 232° |
| 2026-04-10 05:11 | -13.77673 | 129.11699 | 38010 ft | 458 kts | 232° |
| 2026-04-10 05:11 | -13.81529 | 129.06545 | 38014 ft | 458 kts | 232° |
| 2026-04-10 05:12 | -13.85418 | 129.01353 | 38015 ft | 458 kts | 232° |
| 2026-04-10 05:12 | -13.89273 | 128.96185 | 38015 ft | 458 kts | 232° |
| 2026-04-10 05:13 | -13.93174 | 128.90951 | 38015 ft | 458 kts | 232° |
| 2026-04-10 05:13 | -13.97066 | 128.85749 | 38016 ft | 458 kts | 232° |
| 2026-04-10 05:14 | -14.00952 | 128.80555 | 38017 ft | 458 kts | 232° |
| 2026-04-10 05:14 | -14.04828 | 128.75350 | 38018 ft | 458 kts | 232° |
| 2026-04-10 05:15 | -14.08709 | 128.70145 | 38020 ft | 458 kts | 232° |
| 2026-04-10 05:15 | -14.12593 | 128.64939 | 38018 ft | 458 kts | 232° |
| 2026-04-10 05:16 | -14.16469 | 128.59729 | 38022 ft | 458 kts | 232° |
| 2026-04-10 05:16 | -14.20314 | 128.54545 | 38022 ft | 458 kts | 233° |
| 2026-04-10 05:17 | -14.24191 | 128.49332 | 38024 ft | 458 kts | 232° |
| 2026-04-10 05:17 | -14.28072 | 128.44117 | 38025 ft | 458 kts | 233° |
| 2026-04-10 05:18 | -14.31950 | 128.38885 | 37987 ft | 461 kts | 233° |
| 2026-04-10 05:18 | -14.35859 | 128.33616 | 37981 ft | 464 kts | 232° |
| 2026-04-10 05:19 | -14.39799 | 128.28316 | 37984 ft | 466 kts | 232° |
| 2026-04-10 05:19 | -14.43078 | 128.23895 | 37989 ft | 467 kts | 233° |
| 2026-04-10 05:20 | -14.47033 | 128.18556 | 37996 ft | 469 kts | 233° |
| 2026-04-10 05:20 | -14.50989 | 128.13208 | 37999 ft | 469 kts | 233° |
| 2026-04-10 05:21 | -14.54953 | 128.07846 | 38005 ft | 469 kts | 233° |
| 2026-04-10 05:21 | -14.58913 | 128.02489 | 38012 ft | 470 kts | 233° |
| 2026-04-10 05:22 | -14.62878 | 127.97128 | 38017 ft | 470 kts | 233° |
| 2026-04-10 05:22 | -14.66816 | 127.91798 | 38018 ft | 470 kts | 233° |
| 2026-04-10 05:23 | -14.70780 | 127.86432 | 38012 ft | 470 kts | 233° |
| 2026-04-10 05:23 | -14.74748 | 127.81062 | 38014 ft | 470 kts | 233° |
| 2026-04-10 05:24 | -14.78709 | 127.75691 | 38015 ft | 470 kts | 233° |
| 2026-04-10 05:24 | -14.82681 | 127.70304 | 38015 ft | 470 kts | 233° |
| 2026-04-10 05:25 | -14.86641 | 127.64917 | 38018 ft | 471 kts | 233° |
| 2026-04-10 05:25 | -14.90580 | 127.59552 | 38018 ft | 471 kts | 233° |
| 2026-04-10 05:26 | -14.94542 | 127.54153 | 38020 ft | 472 kts | 233° |
| 2026-04-10 05:26 | -14.98512 | 127.48746 | 38022 ft | 472 kts | 233° |
| 2026-04-10 05:27 | -15.02476 | 127.43344 | 38025 ft | 471 kts | 233° |
| 2026-04-10 05:27 | -15.06434 | 127.37938 | 38009 ft | 471 kts | 233° |
| 2026-04-10 05:28 | -15.10399 | 127.32534 | 38010 ft | 472 kts | 233° |
| 2026-04-10 05:28 | -15.14362 | 127.27128 | 38009 ft | 471 kts | 233° |
| 2026-04-10 05:29 | -15.18316 | 127.21714 | 38009 ft | 471 kts | 233° |
| 2026-04-10 05:29 | -15.22268 | 127.16301 | 38009 ft | 472 kts | 233° |
| 2026-04-10 05:30 | -15.26231 | 127.10880 | 38010 ft | 472 kts | 233° |
| 2026-04-10 05:30 | -15.30174 | 127.05488 | 38021 ft | 473 kts | 233° |
| 2026-04-10 05:31 | -15.34137 | 127.00052 | 38023 ft | 473 kts | 233° |
| 2026-04-10 05:31 | -15.38106 | 126.94612 | 38024 ft | 473 kts | 233° |
| 2026-04-10 05:32 | -15.42066 | 126.89171 | 38022 ft | 473 kts | 233° |
| 2026-04-10 05:32 | -15.46019 | 126.83731 | 38009 ft | 472 kts | 233° |
| 2026-04-10 05:33 | -15.49977 | 126.78307 | 38009 ft | 472 kts | 233° |
| 2026-04-10 05:33 | -15.53933 | 126.72866 | 38009 ft | 472 kts | 233° |
| 2026-04-10 05:34 | -15.57845 | 126.67464 | 38009 ft | 472 kts | 233° |
| 2026-04-10 05:34 | -15.61789 | 126.62021 | 38013 ft | 472 kts | 233° |
| 2026-04-10 05:35 | -15.65745 | 126.56580 | 38016 ft | 473 kts | 233° |
| 2026-04-10 05:35 | -15.69709 | 126.51134 | 38019 ft | 473 kts | 233° |
| 2026-04-10 05:36 | -15.73668 | 126.45673 | 38019 ft | 473 kts | 233° |
| 2026-04-10 05:36 | -15.77605 | 126.40214 | 38008 ft | 472 kts | 233° |
| 2026-04-10 05:37 | -15.81550 | 126.34765 | 38010 ft | 472 kts | 233° |
| 2026-04-10 05:37 | -15.85491 | 126.29318 | 38009 ft | 472 kts | 233° |
| 2026-04-10 05:38 | -15.89435 | 126.23854 | 38009 ft | 472 kts | 233° |
| 2026-04-10 05:38 | -15.93370 | 126.18393 | 38009 ft | 472 kts | 233° |
| 2026-04-10 05:39 | -15.97304 | 126.12924 | 38008 ft | 472 kts | 233° |
| 2026-04-10 05:39 | -16.01243 | 126.07452 | 38015 ft | 473 kts | 233° |
| 2026-04-10 05:40 | -16.05201 | 126.01979 | 38019 ft | 473 kts | 233° |
| 2026-04-10 05:40 | -16.09128 | 125.96528 | 38022 ft | 474 kts | 233° |
| 2026-04-10 05:41 | -16.13079 | 125.91028 | 38023 ft | 474 kts | 233° |
| 2026-04-10 05:41 | -16.17020 | 125.85528 | 38019 ft | 474 kts | 233° |
| 2026-04-10 05:42 | -16.20966 | 125.80030 | 38024 ft | 475 kts | 233° |
| 2026-04-10 05:42 | -16.24919 | 125.74523 | 38027 ft | 475 kts | 233° |
| 2026-04-10 05:43 | -16.28867 | 125.69019 | 38028 ft | 474 kts | 233° |
| 2026-04-10 05:43 | -16.32810 | 125.63527 | 38028 ft | 473 kts | 233° |
| 2026-04-10 05:44 | -16.36749 | 125.58022 | 38031 ft | 473 kts | 233° |
| 2026-04-10 05:44 | -16.40649 | 125.52555 | 38031 ft | 473 kts | 233° |
| 2026-04-10 05:45 | -16.44584 | 125.47052 | 38030 ft | 474 kts | 233° |
| 2026-04-10 05:45 | -16.48521 | 125.41554 | 38030 ft | 473 kts | 233° |
| 2026-04-10 05:46 | -16.52451 | 125.36049 | 38029 ft | 474 kts | 233° |
| 2026-04-10 05:46 | -16.56376 | 125.30524 | 38027 ft | 474 kts | 233° |
| 2026-04-10 05:47 | -16.60299 | 125.25001 | 38031 ft | 474 kts | 233° |
| 2026-04-10 05:47 | -16.64232 | 125.19480 | 38029 ft | 474 kts | 233° |
| 2026-04-10 05:48 | -16.68172 | 125.13969 | 38033 ft | 474 kts | 233° |
| 2026-04-10 05:48 | -16.72104 | 125.08443 | 38032 ft | 473 kts | 233° |
| 2026-04-10 05:49 | -16.75993 | 125.02947 | 38034 ft | 473 kts | 233° |
| 2026-04-10 05:49 | -16.79910 | 124.97422 | 38028 ft | 473 kts | 233° |
| 2026-04-10 05:50 | -16.83820 | 124.91919 | 38009 ft | 471 kts | 233° |
| 2026-04-10 05:50 | -16.87712 | 124.86421 | 38009 ft | 470 kts | 233° |
| 2026-04-10 05:51 | -16.91601 | 124.80924 | 38009 ft | 471 kts | 233° |
| 2026-04-10 05:51 | -16.95497 | 124.75427 | 38009 ft | 471 kts | 233° |
| 2026-04-10 05:52 | -16.99390 | 124.69923 | 38016 ft | 471 kts | 233° |
| 2026-04-10 05:52 | -17.03277 | 124.64405 | 38021 ft | 471 kts | 234° |
| 2026-04-10 05:53 | -17.07170 | 124.58882 | 38024 ft | 472 kts | 233° |
| 2026-04-10 05:53 | -17.11043 | 124.53398 | 38028 ft | 472 kts | 233° |
| 2026-04-10 05:54 | -17.14937 | 124.47885 | 38004 ft | 470 kts | 233° |
| 2026-04-10 05:54 | -17.18817 | 124.42375 | 38009 ft | 470 kts | 233° |
| 2026-04-10 05:55 | -17.22688 | 124.36877 | 38009 ft | 470 kts | 234° |
| 2026-04-10 05:55 | -17.26560 | 124.31362 | 38009 ft | 470 kts | 234° |
| 2026-04-10 05:56 | -17.30429 | 124.25850 | 38011 ft | 470 kts | 234° |
| 2026-04-10 05:56 | -17.34303 | 124.20332 | 38019 ft | 470 kts | 234° |
| 2026-04-10 05:57 | -17.38175 | 124.14810 | 38020 ft | 470 kts | 234° |
| 2026-04-10 05:57 | -17.42040 | 124.09289 | 38023 ft | 470 kts | 234° |
| 2026-04-10 05:58 | -17.45912 | 124.03759 | 38024 ft | 471 kts | 234° |
| 2026-04-10 05:58 | -17.49784 | 123.98230 | 38024 ft | 471 kts | 234° |
| 2026-04-10 05:59 | -17.53659 | 123.92698 | 38027 ft | 471 kts | 234° |
| 2026-04-10 05:59 | -17.57570 | 123.87195 | 38025 ft | 471 kts | 229° |
| 2026-04-10 06:00 | -17.62543 | 123.82758 | 38021 ft | 471 kts | 212° |
| 2026-04-10 06:00 | -17.68035 | 123.79128 | 38026 ft | 471 kts | 212° |
| 2026-04-10 06:01 | -17.73629 | 123.75405 | 38027 ft | 472 kts | 212° |
| 2026-04-10 06:01 | -17.79129 | 123.71724 | 38030 ft | 472 kts | 213° |
| 2026-04-10 06:02 | -17.84669 | 123.68020 | 38032 ft | 472 kts | 212° |
| 2026-04-10 06:02 | -17.90221 | 123.64325 | 38031 ft | 472 kts | 212° |
| 2026-04-10 06:03 | -17.95759 | 123.60636 | 38030 ft | 471 kts | 212° |
| 2026-04-10 06:03 | -18.01292 | 123.56934 | 38030 ft | 471 kts | 213° |
| 2026-04-10 06:04 | -18.06821 | 123.53224 | 38029 ft | 472 kts | 213° |
| 2026-04-10 06:04 | -18.12351 | 123.49521 | 38007 ft | 471 kts | 213° |
| 2026-04-10 06:05 | -18.17844 | 123.45848 | 38008 ft | 470 kts | 212° |
| 2026-04-10 06:05 | -18.23365 | 123.42152 | 38010 ft | 470 kts | 213° |
| 2026-04-10 06:06 | -18.31643 | 123.36598 | 38009 ft | 471 kts | 213° |
| 2026-04-10 06:07 | -18.36236 | 123.33513 | 38014 ft | 471 kts | 213° |
| 2026-04-10 06:07 | -18.41773 | 123.29785 | 38025 ft | 472 kts | 213° |
| 2026-04-10 06:08 | -18.47308 | 123.26060 | 38029 ft | 472 kts | 213° |
| 2026-04-10 06:08 | -18.52844 | 123.22340 | 38030 ft | 472 kts | 212° |
| 2026-04-10 06:09 | -18.58390 | 123.18615 | 38030 ft | 473 kts | 213° |
| 2026-04-10 06:09 | -18.63934 | 123.14883 | 38030 ft | 473 kts | 213° |
| 2026-04-10 06:10 | -18.69478 | 123.11140 | 38033 ft | 473 kts | 213° |
| 2026-04-10 06:10 | -18.75018 | 123.07394 | 38032 ft | 473 kts | 213° |
| 2026-04-10 06:11 | -18.80557 | 123.03646 | 38029 ft | 473 kts | 213° |
| 2026-04-10 06:11 | -18.86058 | 122.99920 | 38031 ft | 473 kts | 213° |
| 2026-04-10 06:12 | -18.91600 | 122.96171 | 38005 ft | 471 kts | 213° |
| 2026-04-10 06:12 | -18.97122 | 122.92438 | 38009 ft | 471 kts | 213° |
| 2026-04-10 06:13 | -19.02651 | 122.88702 | 38008 ft | 471 kts | 213° |
| 2026-04-10 06:13 | -19.08165 | 122.84952 | 38009 ft | 471 kts | 213° |
| 2026-04-10 06:14 | -19.13680 | 122.81201 | 38014 ft | 472 kts | 213° |
| 2026-04-10 06:14 | -19.19167 | 122.77469 | 38019 ft | 472 kts | 213° |
| 2026-04-10 06:15 | -19.24696 | 122.73713 | 38025 ft | 472 kts | 213° |
| 2026-04-10 06:15 | -19.30218 | 122.69952 | 38031 ft | 472 kts | 213° |
| 2026-04-10 06:16 | -19.35751 | 122.66184 | 38029 ft | 472 kts | 213° |
| 2026-04-10 06:16 | -19.41278 | 122.62416 | 38030 ft | 472 kts | 213° |
| 2026-04-10 06:17 | -19.46805 | 122.58646 | 38032 ft | 472 kts | 213° |
| 2026-04-10 06:17 | -19.52338 | 122.54868 | 38033 ft | 472 kts | 213° |
| 2026-04-10 06:18 | -19.57831 | 122.51114 | 38032 ft | 473 kts | 213° |
| 2026-04-10 06:18 | -19.63356 | 122.47338 | 38032 ft | 473 kts | 213° |
| 2026-04-10 06:19 | -19.68880 | 122.43559 | 38032 ft | 472 kts | 213° |
| 2026-04-10 06:19 | -19.74408 | 122.39767 | 38034 ft | 473 kts | 213° |
| 2026-04-10 06:20 | -19.79927 | 122.35974 | 38034 ft | 473 kts | 213° |
| 2026-04-10 06:20 | -19.85447 | 122.32186 | 38031 ft | 472 kts | 213° |
| 2026-04-10 06:21 | -19.90965 | 122.28396 | 38030 ft | 472 kts | 213° |
| 2026-04-10 06:21 | -19.96476 | 122.24614 | 38009 ft | 471 kts | 213° |
| 2026-04-10 06:22 | -20.01970 | 122.20830 | 38009 ft | 471 kts | 213° |
| 2026-04-10 06:22 | -20.07466 | 122.17044 | 38009 ft | 471 kts | 213° |